createdAt,value
2019-05-20T00:01:30.164Z,14.80
2019-05-20T00:04:00.699Z,13.60
2019-05-20T00:06:28.415Z,13.93
2019-05-20T00:09:04.477Z,14.10
2019-05-20T00:11:31.181Z,13.50
2019-05-20T00:13:57.506Z,16.13
2019-05-20T00:16:30.227Z,13.13
2019-05-20T00:18:56.585Z,16.57
2019-05-20T00:21:23.299Z,14.47
2019-05-20T00:23:49.863Z,12.40
2019-05-20T00:26:17.122Z,12.77
2019-05-20T00:28:43.374Z,14.60
2019-05-20T00:31:09.962Z,13.53
2019-05-20T00:33:36.342Z,13.13
2019-05-20T00:36:02.876Z,13.10
2019-05-20T00:38:30.523Z,13.93
2019-05-20T00:40:57.168Z,13.30
2019-05-20T00:43:32.388Z,13.70
2019-05-20T00:45:59.797Z,11.43
2019-05-20T00:48:26.494Z,13.47
2019-05-20T00:50:53.963Z,13.17
2019-05-20T00:53:21.594Z,12.43
2019-05-20T00:55:59.242Z,11.77
2019-05-20T00:58:25.783Z,12.20
2019-05-20T01:00:52.376Z,13.00
2019-05-20T01:03:23.593Z,10.77
2019-05-20T01:05:49.843Z,12.93
2019-05-20T01:08:16.161Z,11.40
2019-05-20T01:10:42.825Z,11.23
2019-05-20T01:13:09.241Z,15.53
2019-05-20T01:15:35.471Z,12.90
2019-05-20T01:18:01.723Z,16.03
2019-05-20T01:20:28.081Z,13.67
2019-05-20T01:22:54.322Z,14.40
2019-05-20T01:25:20.589Z,14.23
2019-05-20T01:27:47.922Z,11.93
2019-05-20T01:30:15.691Z,14.10
2019-05-20T01:32:42.040Z,12.00
2019-05-20T01:35:10.973Z,13.03
2019-05-20T01:37:37.246Z,13.60
2019-05-20T01:40:03.723Z,12.27
2019-05-20T01:42:30.340Z,12.20
2019-05-20T01:44:56.688Z,12.00
2019-05-20T01:47:22.969Z,13.60
2019-05-20T01:49:49.342Z,13.97
2019-05-20T01:52:17.132Z,11.93
2019-05-20T01:54:43.871Z,12.63
2019-05-20T01:57:10.617Z,12.90
2019-05-20T01:59:37.154Z,11.70
2019-05-20T02:02:05.747Z,10.70
2019-05-20T02:04:32.014Z,11.77
2019-05-20T02:06:58.370Z,12.60
2019-05-20T02:09:24.817Z,9.23
2019-05-20T02:11:51.209Z,10.93
2019-05-20T02:14:19.866Z,10.60
2019-05-20T02:16:46.396Z,8.23
2019-05-20T02:19:13.830Z,11.47
2019-05-20T02:21:40.180Z,10.70
2019-05-20T02:24:07.949Z,8.40
2019-05-20T02:26:34.638Z,9.13
2019-05-20T02:29:02.127Z,8.27
2019-05-20T02:31:28.904Z,7.37
2019-05-20T02:33:55.361Z,7.67
2019-05-20T02:36:22.283Z,6.93
2019-05-20T02:38:49.044Z,10.23
2019-05-20T02:41:22.569Z,7.40
2019-05-20T02:43:51.996Z,6.77
2019-05-20T02:46:18.546Z,6.57
2019-05-20T02:48:45.189Z,5.83
2019-05-20T02:51:11.560Z,8.03
2019-05-20T02:53:39.955Z,7.33
2019-05-20T02:56:10.204Z,6.70
2019-05-20T02:58:36.544Z,7.90
2019-05-20T03:01:03.238Z,6.80
2019-05-20T03:03:29.862Z,5.83
2019-05-20T03:06:09.343Z,4.80
2019-05-20T03:08:35.701Z,4.50
2019-05-20T03:11:02.306Z,4.30
2019-05-20T03:13:29.686Z,4.23
2019-05-20T03:15:56.100Z,4.03
2019-05-20T03:18:22.791Z,6.33
2019-05-20T03:20:57.173Z,5.60
2019-05-20T03:23:27.235Z,6.93
2019-05-20T03:25:53.577Z,6.30
2019-05-20T03:28:20.980Z,6.23
2019-05-20T03:30:47.395Z,5.47
2019-05-20T03:33:18.094Z,5.27
2019-05-20T03:35:44.534Z,5.23
2019-05-20T03:38:12.028Z,4.03
2019-05-20T03:40:39.673Z,4.00
2019-05-20T03:43:12.218Z,3.53
2019-05-20T03:45:38.574Z,3.53
2019-05-20T03:48:05.126Z,4.13
2019-05-20T03:50:31.475Z,4.13
2019-05-20T03:52:58.134Z,4.20
2019-05-20T03:55:25.622Z,3.60
2019-05-20T03:57:52.402Z,3.23
2019-05-20T04:00:44.554Z,3.73
2019-05-20T04:03:13.768Z,3.20
2019-05-20T04:05:42.246Z,3.20
2019-05-20T04:08:08.638Z,3.37
2019-05-20T04:10:35.350Z,4.17
2019-05-20T04:13:03.456Z,3.40
2019-05-20T04:15:30.178Z,3.00
2019-05-20T04:17:58.071Z,3.10
2019-05-20T04:20:25.768Z,3.87
2019-05-20T04:22:52.525Z,3.20
2019-05-20T04:25:20.995Z,2.97
2019-05-20T04:27:49.381Z,3.13
2019-05-20T04:30:26.565Z,4.57
2019-05-20T04:32:54.030Z,4.17
2019-05-20T04:35:23.144Z,3.53
2019-05-20T04:37:49.949Z,4.43
2019-05-20T04:40:16.795Z,4.47
2019-05-20T04:42:43.175Z,5.10
2019-05-20T04:45:11.362Z,4.83
2019-05-20T04:47:38.099Z,6.40
2019-05-20T04:50:08.081Z,8.77
2019-05-20T04:52:35.451Z,8.40
2019-05-20T04:55:02.405Z,9.73
2019-05-20T04:57:34.088Z,5.70
2019-05-20T05:00:05.724Z,8.27
2019-05-20T05:02:32.213Z,10.50
2019-05-20T05:04:58.771Z,7.83
2019-05-20T05:07:25.299Z,9.07
2019-05-20T05:09:52.105Z,11.17
2019-05-20T05:12:20.646Z,8.60
2019-05-20T05:14:47.972Z,11.90
2019-05-20T05:17:17.976Z,16.47
2019-05-20T05:19:50.318Z,10.77
2019-05-20T05:22:21.048Z,9.53
2019-05-20T05:24:47.531Z,10.93
2019-05-20T05:27:13.901Z,13.37
2019-05-20T05:29:40.427Z,13.17
2019-05-20T05:32:10.088Z,12.33
2019-05-20T05:34:39.637Z,12.50
2019-05-20T05:37:10.147Z,12.70
2019-05-20T05:39:36.434Z,14.70
2019-05-20T05:42:03.025Z,17.37
2019-05-20T05:44:29.365Z,13.90
2019-05-20T05:46:55.836Z,15.63
2019-05-20T05:49:22.634Z,16.43
2019-05-20T05:51:49.639Z,18.57
2019-05-20T05:54:17.381Z,17.13
2019-05-20T05:56:43.824Z,19.47
2019-05-20T05:59:10.207Z,15.10
2019-05-20T06:01:36.588Z,20.20
2019-05-20T06:04:03.194Z,16.27
2019-05-20T06:06:29.547Z,20.07
2019-05-20T06:08:57.428Z,22.27
2019-05-20T06:11:23.820Z,18.50
2019-05-20T06:13:50.214Z,17.73
2019-05-20T06:16:35.844Z,19.30
2019-05-20T06:18:50.357Z,21.20
2019-05-20T06:21:17.073Z,18.67
2019-05-20T06:23:43.575Z,22.57
2019-05-20T06:26:10.085Z,17.27
2019-05-20T06:28:36.570Z,22.40
2019-05-20T06:31:03.038Z,26.17
2019-05-20T06:33:29.672Z,17.07
2019-05-20T06:36:01.675Z,22.00
2019-05-20T06:38:36.508Z,20.63
2019-05-20T06:41:04.666Z,21.33
2019-05-20T06:43:31.052Z,22.20
2019-05-20T06:45:57.456Z,23.37
2019-05-20T06:48:27.898Z,17.47
2019-05-20T06:51:02.165Z,20.67
2019-05-20T06:53:30.813Z,21.40
2019-05-20T06:55:57.238Z,18.80
2019-05-20T06:58:25.026Z,25.60
2019-05-20T07:00:51.427Z,21.77
2019-05-20T07:03:18.930Z,21.13
2019-05-20T07:05:45.408Z,19.00
2019-05-20T07:08:13.810Z,17.53
2019-05-20T07:10:44.160Z,19.63
2019-05-20T07:13:11.615Z,19.27
2019-05-20T07:15:41.487Z,20.50
2019-05-20T07:18:09.206Z,19.87
2019-05-20T07:20:35.850Z,18.40
2019-05-20T07:23:08.528Z,19.63
2019-05-20T07:25:35.028Z,18.13
2019-05-20T07:28:02.961Z,19.67
2019-05-20T07:30:33.646Z,18.70
2019-05-20T07:33:00.326Z,19.73
2019-05-20T07:35:37.329Z,20.80
2019-05-20T07:38:03.654Z,18.90
2019-05-20T07:40:31.487Z,17.97
2019-05-20T07:42:58.292Z,19.00
2019-05-20T07:45:27.449Z,19.13
2019-05-20T07:47:54.269Z,15.70
2019-05-20T07:50:24.458Z,17.57
2019-05-20T07:52:51.184Z,18.80
2019-05-20T07:55:19.526Z,17.47
2019-05-20T07:57:49.918Z,16.47
2019-05-20T08:00:16.508Z,16.77
2019-05-20T08:02:45.018Z,17.57
2019-05-20T08:05:12.005Z,16.30
2019-05-20T08:07:51.308Z,18.13
2019-05-20T08:10:07.892Z,14.63
2019-05-20T08:12:34.446Z,15.47
2019-05-20T08:15:01.268Z,17.13
2019-05-20T08:17:27.976Z,19.47
2019-05-20T08:19:54.455Z,17.47
2019-05-20T08:22:29.881Z,16.30
2019-05-20T08:24:56.216Z,15.97
2019-05-20T08:27:25.089Z,14.43
2019-05-20T08:29:51.424Z,14.87
2019-05-20T08:32:18.104Z,15.93
2019-05-20T08:34:45.608Z,16.73
2019-05-20T08:37:12.262Z,14.37
2019-05-20T08:39:38.755Z,15.40
2019-05-20T08:42:06.295Z,16.83
2019-05-20T08:44:33.101Z,14.43
2019-05-20T08:46:59.501Z,16.50
2019-05-20T08:49:26.116Z,16.57
2019-05-20T08:51:58.714Z,16.63
2019-05-20T08:54:25.701Z,16.37
2019-05-20T08:56:52.314Z,15.57
2019-05-20T08:59:18.772Z,16.63
2019-05-20T09:01:45.102Z,15.23
2019-05-20T09:04:11.471Z,15.60
2019-05-20T09:06:37.950Z,15.53
2019-05-20T09:09:05.910Z,14.77
2019-05-20T09:11:34.542Z,14.27
2019-05-20T09:14:03.248Z,15.33
2019-05-20T09:16:29.897Z,14.30
2019-05-20T09:18:56.220Z,14.60
2019-05-20T09:21:22.663Z,14.23
2019-05-20T09:23:49.283Z,15.83
2019-05-20T09:26:16.212Z,12.33
2019-05-20T09:28:43.293Z,12.40
2019-05-20T09:31:09.642Z,11.47
2019-05-20T09:33:40.111Z,11.17
2019-05-20T09:36:09.487Z,10.87
2019-05-20T09:38:39.266Z,12.10
2019-05-20T09:41:07.727Z,10.33
2019-05-20T09:43:34.571Z,11.87
2019-05-20T09:46:08.069Z,9.87
2019-05-20T09:48:33.992Z,11.43
2019-05-20T09:51:09.519Z,11.00
2019-05-20T09:53:36.284Z,10.67
2019-05-20T09:56:06.264Z,10.83
2019-05-20T09:58:36.474Z,10.23
2019-05-20T10:01:03.064Z,12.53
2019-05-20T10:03:29.434Z,10.40
2019-05-20T10:05:55.856Z,10.57
2019-05-20T10:08:36.514Z,9.53
2019-05-20T10:10:51.689Z,11.13
2019-05-20T10:13:18.099Z,18.77
2019-05-20T10:15:47.638Z,10.97
2019-05-20T10:18:14.055Z,10.13
2019-05-20T10:20:40.691Z,9.00
2019-05-20T10:23:07.486Z,11.17
2019-05-20T10:25:34.255Z,10.50
2019-05-20T10:28:05.252Z,12.00
2019-05-20T10:30:31.897Z,9.00
2019-05-20T10:32:58.466Z,9.40
2019-05-20T10:35:25.130Z,9.77
2019-05-20T10:37:53.640Z,9.27
2019-05-20T10:40:20.264Z,9.93
2019-05-20T10:42:48.735Z,10.40
2019-05-20T10:45:15.813Z,9.27
2019-05-20T10:47:42.504Z,8.60
2019-05-20T10:50:14.344Z,9.63
2019-05-20T10:52:41.010Z,9.63
2019-05-20T10:55:09.984Z,9.53
2019-05-20T10:57:37.522Z,8.93
2019-05-20T11:00:06.280Z,10.67
2019-05-20T11:02:32.658Z,8.90
2019-05-20T11:04:59.073Z,10.60
2019-05-20T11:07:27.035Z,8.87
2019-05-20T11:09:55.523Z,7.77
2019-05-20T11:12:22.025Z,9.47
2019-05-20T11:14:48.523Z,12.47
2019-05-20T11:17:15.296Z,10.17
2019-05-20T11:19:46.120Z,9.90
2019-05-20T11:22:14.860Z,11.13
2019-05-20T11:24:41.231Z,10.57
2019-05-20T11:27:07.971Z,9.10
2019-05-20T11:29:34.460Z,9.87
2019-05-20T11:32:00.995Z,8.67
2019-05-20T11:34:28.584Z,12.93
2019-05-20T11:36:55.474Z,10.37
2019-05-20T11:39:32.481Z,10.43
2019-05-20T11:41:54.544Z,9.77
2019-05-20T11:44:19.081Z,12.57
2019-05-20T11:46:45.332Z,10.30
2019-05-20T11:49:11.890Z,10.30
2019-05-20T11:51:38.241Z,10.93
2019-05-20T11:54:04.634Z,13.83
2019-05-20T11:56:31.244Z,9.00
2019-05-20T11:58:58.284Z,10.20
2019-05-20T12:01:24.688Z,11.23
2019-05-20T12:03:51.033Z,11.10
2019-05-20T12:06:26.932Z,12.23
2019-05-20T12:08:55.742Z,12.47
2019-05-20T12:11:22.445Z,12.43
2019-05-20T12:13:52.897Z,11.57
2019-05-20T12:16:19.245Z,11.97
2019-05-20T12:18:46.049Z,13.20
2019-05-20T12:21:15.654Z,13.07
2019-05-20T12:23:42.037Z,16.83
2019-05-20T12:26:08.530Z,14.40
2019-05-20T12:28:34.917Z,12.97
2019-05-20T12:31:02.989Z,13.90
2019-05-20T12:33:35.928Z,11.57
2019-05-20T12:36:11.141Z,13.90
2019-05-20T12:38:41.144Z,12.93
2019-05-20T12:41:07.919Z,12.90
2019-05-20T12:43:34.368Z,14.27
2019-05-20T12:46:02.443Z,11.43
2019-05-20T12:48:29.862Z,15.80
2019-05-20T12:50:56.395Z,14.10
2019-05-20T12:53:26.646Z,12.70
2019-05-20T12:55:56.081Z,10.57
2019-05-20T12:58:22.611Z,11.80
2019-05-20T13:00:49.502Z,13.50
2019-05-20T13:03:22.421Z,12.77
2019-05-20T13:05:49.154Z,13.57
2019-05-20T13:08:17.673Z,14.20
2019-05-20T13:10:48.267Z,15.43
2019-05-20T13:13:15.291Z,14.57
2019-05-20T13:15:41.625Z,14.80
2019-05-20T13:18:10.208Z,14.70
2019-05-20T13:20:36.652Z,16.27
2019-05-20T13:23:05.364Z,15.10
2019-05-20T13:25:31.892Z,18.03
2019-05-20T13:27:58.150Z,17.03
2019-05-20T13:30:30.520Z,17.27
2019-05-20T13:33:01.564Z,17.63
2019-05-20T13:35:34.032Z,17.93
2019-05-20T13:38:01.656Z,16.67
2019-05-20T13:40:45.221Z,17.73
2019-05-20T13:42:59.644Z,18.93
2019-05-20T13:45:26.241Z,22.07
2019-05-20T13:47:53.651Z,18.33
2019-05-20T13:50:23.108Z,17.97
2019-05-20T13:52:49.709Z,20.80
2019-05-20T13:55:16.099Z,22.40
2019-05-20T13:57:42.700Z,18.83
2019-05-20T14:00:10.518Z,21.13
2019-05-20T14:02:37.972Z,20.03
2019-05-20T14:05:05.831Z,20.80
2019-05-20T14:07:38.016Z,22.10
2019-05-20T14:10:27.666Z,25.60
2019-05-20T14:12:56.410Z,22.73
2019-05-20T14:15:30.996Z,21.73
2019-05-20T14:18:01.442Z,24.17
2019-05-20T14:20:28.964Z,20.40
2019-05-20T14:22:55.333Z,25.60
2019-05-20T14:25:29.825Z,21.73
2019-05-20T14:27:56.500Z,26.97
2019-05-20T14:30:22.865Z,25.57
2019-05-20T14:32:49.340Z,21.67
2019-05-20T14:35:16.156Z,31.47
2019-05-20T14:37:43.191Z,25.73
2019-05-20T14:40:13.100Z,22.13
2019-05-20T14:42:40.514Z,25.77
2019-05-20T14:45:10.256Z,24.33
2019-05-20T14:47:38.871Z,23.97
2019-05-20T14:50:07.132Z,26.37
2019-05-20T14:52:33.639Z,26.13
2019-05-20T14:55:00.132Z,26.03
2019-05-20T14:57:28.560Z,26.67
2019-05-20T14:59:55.383Z,25.13
2019-05-20T15:02:21.963Z,24.57
2019-05-20T15:04:58.493Z,23.23
2019-05-20T15:07:31.573Z,26.67
2019-05-20T15:09:58.281Z,24.17
2019-05-20T15:12:24.863Z,22.23
2019-05-20T15:14:51.545Z,25.73
2019-05-20T15:17:17.926Z,24.40
2019-05-20T15:19:45.313Z,28.23
2019-05-20T15:22:16.967Z,28.33
2019-05-20T15:24:45.441Z,30.27
2019-05-20T15:27:15.976Z,27.10
2019-05-20T15:29:49.657Z,29.10
2019-05-20T15:32:16.482Z,31.17
2019-05-20T15:34:43.854Z,28.97
2019-05-20T15:37:11.386Z,36.57
2019-05-20T15:39:41.105Z,32.47
2019-05-20T15:42:11.018Z,35.43
2019-05-20T15:44:39.501Z,35.80
2019-05-20T15:47:07.900Z,32.63
2019-05-20T15:49:34.488Z,33.93
2019-05-20T15:52:01.116Z,29.50
2019-05-20T15:54:28.830Z,36.67
2019-05-20T15:56:55.279Z,31.93
2019-05-20T15:59:21.754Z,33.63
2019-05-20T16:01:48.367Z,31.87
2019-05-20T16:04:15.874Z,35.93
2019-05-20T16:06:48.989Z,29.87
2019-05-20T16:09:17.157Z,37.20
2019-05-20T16:11:51.276Z,35.07
2019-05-20T16:14:17.919Z,36.47
2019-05-20T16:16:48.763Z,33.47
2019-05-20T16:19:25.623Z,31.13
2019-05-20T16:21:56.974Z,28.83
2019-05-20T16:24:29.881Z,35.27
2019-05-20T16:27:01.303Z,32.33
2019-05-20T16:29:35.959Z,34.63
2019-05-20T16:32:04.505Z,34.37
2019-05-20T16:34:31.091Z,32.87
2019-05-20T16:36:58.588Z,40.47
2019-05-20T16:39:26.017Z,32.53
2019-05-20T16:41:52.483Z,34.47
2019-05-20T16:44:18.915Z,35.73
2019-05-20T16:46:49.007Z,31.53
2019-05-20T16:49:15.366Z,32.50
2019-05-20T16:51:44.084Z,36.63
2019-05-20T16:54:10.576Z,36.10
2019-05-20T16:56:37.938Z,34.73
2019-05-20T16:59:10.982Z,33.10
2019-05-20T17:01:45.946Z,27.13
2019-05-20T17:04:12.873Z,32.20
2019-05-20T17:06:39.687Z,29.10
2019-05-20T17:09:06.558Z,27.00
2019-05-20T17:11:34.056Z,25.73
2019-05-20T17:14:04.646Z,22.97
2019-05-20T17:16:31.039Z,21.00
2019-05-20T17:19:01.182Z,21.43
2019-05-20T17:21:28.809Z,21.40
2019-05-20T17:23:55.216Z,21.03
2019-05-20T17:26:25.914Z,20.53
2019-05-20T17:28:57.704Z,19.90
2019-05-20T17:31:30.930Z,22.40
2019-05-20T17:34:01.133Z,19.13
2019-05-20T17:36:28.796Z,18.23
2019-05-20T17:38:55.507Z,22.87
2019-05-20T17:41:22.331Z,21.50
2019-05-20T17:43:49.802Z,22.83
2019-05-20T17:46:17.245Z,22.77
2019-05-20T17:48:44.017Z,21.57
2019-05-20T17:51:11.553Z,20.67
2019-05-20T17:53:37.908Z,28.97
2019-05-20T17:56:04.305Z,23.93
2019-05-20T17:58:30.712Z,20.13
2019-05-20T18:01:13.992Z,24.93
2019-05-20T18:03:27.469Z,21.47
2019-05-20T18:05:54.157Z,21.13
2019-05-20T18:08:26.027Z,22.43
2019-05-20T18:10:56.121Z,27.77
2019-05-20T18:13:22.502Z,28.37
2019-05-20T18:15:54.015Z,25.10
2019-05-20T18:18:26.205Z,27.47
2019-05-20T18:20:56.269Z,27.43
2019-05-20T18:23:21.189Z,28.83
2019-05-20T18:25:48.647Z,32.77
2019-05-20T18:28:18.054Z,29.93
2019-05-20T18:30:45.688Z,32.93
2019-05-20T18:33:12.571Z,27.13
2019-05-20T18:35:39.011Z,31.00
2019-05-20T18:38:17.478Z,28.23
2019-05-20T18:40:45.066Z,31.77
2019-05-20T18:43:11.651Z,33.87
2019-05-20T18:45:39.485Z,32.83
2019-05-20T18:48:06.157Z,31.87
2019-05-20T18:50:32.607Z,29.93
2019-05-20T18:53:09.124Z,32.37
2019-05-20T18:55:41.040Z,29.40
2019-05-20T18:58:07.504Z,30.23
2019-05-20T19:00:33.984Z,28.33
2019-05-20T19:03:01.733Z,33.40
2019-05-20T19:05:30.225Z,33.27
2019-05-20T19:07:56.866Z,32.43
2019-05-20T19:10:24.668Z,32.43
2019-05-20T19:12:51.095Z,33.10
2019-05-20T19:15:17.882Z,38.13
2019-05-20T19:17:50.374Z,29.70
2019-05-20T19:20:16.870Z,30.87
2019-05-20T19:22:43.427Z,33.57
2019-05-20T19:25:10.524Z,32.20
2019-05-20T19:27:38.023Z,30.20
2019-05-20T19:30:11.524Z,29.00
2019-05-20T19:32:38.099Z,36.03
2019-05-20T19:35:07.534Z,32.77
2019-05-20T19:37:39.165Z,32.83
2019-05-20T19:40:10.004Z,31.93
2019-05-20T19:42:38.323Z,32.13
2019-05-20T19:45:05.563Z,33.43
2019-05-20T19:47:33.500Z,33.73
2019-05-20T19:50:05.275Z,39.47
2019-05-20T19:52:32.968Z,39.43
2019-05-20T19:55:00.431Z,38.20
2019-05-20T19:57:31.877Z,34.80
2019-05-20T19:59:58.612Z,36.80
2019-05-20T20:02:25.987Z,40.70
2019-05-20T20:04:55.695Z,34.50
2019-05-20T20:07:23.510Z,33.90
2019-05-20T20:09:50.446Z,33.23
2019-05-20T20:12:25.824Z,32.03
2019-05-20T20:14:52.096Z,32.37
2019-05-20T20:17:35.521Z,29.60
2019-05-20T20:20:05.163Z,28.27
2019-05-20T20:22:31.596Z,26.70
2019-05-20T20:24:57.948Z,24.40
2019-05-20T20:27:30.279Z,25.83
2019-05-20T20:29:58.110Z,21.87
2019-05-20T20:32:37.620Z,22.83
2019-05-20T20:34:53.680Z,23.03
2019-05-20T20:37:27.728Z,23.33
2019-05-20T20:39:54.672Z,21.50
2019-05-20T20:42:25.489Z,22.17
2019-05-20T20:44:51.845Z,20.17
2019-05-20T20:47:22.577Z,21.07
2019-05-20T20:49:50.218Z,20.60
2019-05-20T20:52:24.112Z,20.90
2019-05-20T20:54:50.876Z,21.27
2019-05-20T20:57:17.468Z,19.17
2019-05-20T20:59:43.859Z,21.57
2019-05-20T21:02:10.507Z,20.93
2019-05-20T21:04:38.179Z,24.00
2019-05-20T21:07:04.943Z,22.63
2019-05-20T21:09:32.020Z,23.77
2019-05-20T21:11:58.509Z,25.93
2019-05-20T21:14:26.390Z,26.60
2019-05-20T21:17:04.235Z,22.00
2019-05-20T21:19:38.352Z,27.37
2019-05-20T21:22:06.048Z,27.37
2019-05-20T21:24:32.648Z,25.23
2019-05-20T21:27:09.962Z,28.43
2019-05-20T21:29:36.398Z,24.60
2019-05-20T21:32:10.142Z,29.50
2019-05-20T21:34:45.521Z,25.03
2019-05-20T21:37:13.949Z,27.57
2019-05-20T21:39:42.529Z,27.43
2019-05-20T21:42:09.262Z,25.80
2019-05-20T21:44:37.880Z,27.07
2019-05-20T21:47:04.688Z,29.97
2019-05-20T21:49:31.130Z,32.07
2019-05-20T21:51:57.552Z,32.17
2019-05-20T21:54:24.216Z,30.17
2019-05-20T21:56:50.664Z,36.40
2019-05-20T21:59:17.519Z,36.83
2019-05-20T22:01:44.280Z,35.20
2019-05-20T22:04:10.745Z,35.63
2019-05-20T22:06:42.569Z,33.97
2019-05-20T22:09:09.560Z,43.73
2019-05-20T22:11:36.404Z,41.40
2019-05-20T22:14:03.306Z,42.43
2019-05-20T22:16:30.044Z,42.47
2019-05-20T22:18:57.047Z,41.27
2019-05-20T22:21:25.353Z,40.23
2019-05-20T22:23:54.937Z,42.70
2019-05-20T22:26:21.324Z,40.53
2019-05-20T22:28:47.765Z,45.20
2019-05-20T22:31:32.491Z,45.30
2019-05-20T22:33:58.871Z,43.27
2019-05-20T22:36:25.317Z,45.83
2019-05-20T22:39:00.134Z,47.10
2019-05-20T22:41:31.925Z,52.30
2019-05-20T22:43:58.296Z,48.43
2019-05-20T22:46:25.044Z,51.10
2019-05-20T22:48:51.329Z,48.70
2019-05-20T22:51:17.728Z,53.90
2019-05-20T22:53:46.020Z,52.97
2019-05-20T22:56:12.375Z,49.27
2019-05-20T22:58:38.797Z,47.90
2019-05-20T23:01:05.160Z,48.03
2019-05-20T23:03:37.656Z,43.67
2019-05-20T23:06:04.383Z,44.40
2019-05-20T23:08:30.729Z,43.47
2019-05-20T23:10:57.037Z,41.93
2019-05-20T23:13:24.453Z,43.97
2019-05-20T23:15:50.852Z,41.33
2019-05-20T23:18:20.728Z,42.37
2019-05-20T23:20:47.087Z,41.03
2019-05-20T23:23:13.483Z,39.53
2019-05-20T23:25:41.852Z,37.90
2019-05-20T23:28:10.381Z,33.97
2019-05-20T23:30:45.937Z,37.50
2019-05-20T23:33:12.343Z,33.63
2019-05-20T23:35:38.874Z,34.67
2019-05-20T23:38:05.232Z,29.47
2019-05-20T23:40:33.079Z,33.90
2019-05-20T23:42:59.476Z,32.60
2019-05-20T23:45:25.852Z,29.87
2019-05-20T23:47:52.356Z,30.47
2019-05-20T23:50:23.712Z,31.80
2019-05-20T23:52:49.983Z,34.67
2019-05-20T23:55:16.363Z,32.23
2019-05-20T23:57:42.743Z,28.80
